Time;durP1;ratioP1;P1;durP2;ratioP2;P2;SDS_P1;SDS_P2;PMS_P1;PMS_P2;Temp;Humidity;BMP_temperature;BMP_pressure;BME280_temperature;BME280_humidity;BME280_pressure;Samples;Min_cycle;Max_cycle;Signal;HPM_P1;HPM_P2
2021/01/05 00:00:23;;;;;;;29.00;16.17;;;;;;;0.98;67.66;94951.91;4754052;30;20060;-41
2021/01/05 00:02:52;;;;;;;28.83;15.48;;;;;;;0.90;68.16;94962.16;4770497;30;20082;-42
2021/01/05 00:05:19;;;;;;;31.95;16.58;;;;;;;0.86;67.99;94955.06;4771746;30;20060;-42
2021/01/05 00:07:45;;;;;;;32.42;16.15;;;;;;;0.75;68.27;94956.31;4771347;30;20083;-40
2021/01/05 00:10:12;;;;;;;26.30;14.35;;;;;;;1.00;67.67;94949.75;4771264;30;20490;-40
2021/01/05 00:12:39;;;;;;;28.30;14.85;;;;;;;0.86;67.82;94955.06;4771444;30;20089;-40
2021/01/05 00:15:08;;;;;;;31.95;15.57;;;;;;;0.86;67.97;94960.38;4771394;30;20580;-40
2021/01/05 00:17:35;;;;;;;29.70;15.57;;;;;;;0.86;67.96;94960.38;4770962;30;20060;-41
2021/01/05 00:20:08;;;;;;;30.00;15.00;;;;;;;0.97;67.58;94956.44;4771229;30;20086;-40
2021/01/05 00:22:34;;;;;;;28.42;15.63;;;;;;;0.79;67.95;94965.31;4771352;30;20059;-40
2021/01/05 00:25:00;;;;;;;30.23;16.10;;;;;;;0.74;68.39;94968.84;4771163;30;20510;-44
2021/01/05 00:27:27;;;;;;;28.52;15.50;;;;;;;0.69;68.27;94968.94;4770970;30;20056;-41
2021/01/05 00:29:53;;;;;;;32.03;17.70;;;;;;;0.55;68.99;94957.44;4771124;30;20143;-43
2021/01/05 00:32:24;;;;;;;30.85;15.52;;;;;;;0.56;69.37;94965.16;4771308;30;20083;-46
2021/01/05 00:34:51;;;;;;;33.90;16.90;;;;;;;0.48;69.34;94963.16;4771020;30;20129;-40
2021/01/05 00:37:19;;;;;;;34.63;17.70;;;;;;;0.51;69.49;94969.78;4771222;30;20103;-42
2021/01/05 00:39:46;;;;;;;31.80;16.15;;;;;;;0.53;69.38;94965.75;4771231;30;20142;-41
2021/01/05 00:42:13;;;;;;;32.67;16.55;;;;;;;0.34;69.98;94959.69;4771009;30;20062;-42
2021/01/05 00:44:39;;;;;;;32.95;16.65;;;;;;;0.33;70.12;94969.53;4770954;30;20143;-44
2021/01/05 00:47:09;;;;;;;32.22;15.52;;;;;;;0.40;69.88;94975.25;4770837;30;20068;-42
2021/01/05 00:49:36;;;;;;;34.55;17.23;;;;;;;0.34;70.14;94975.63;4769313;30;20452;-41
2021/01/05 00:52:02;;;;;;;31.10;16.05;;;;;;;0.61;69.17;94980.25;4770854;30;20115;-41
2021/01/05 00:54:33;;;;;;;34.58;17.08;;;;;;;0.51;68.92;94983.06;4769817;30;20052;-42
2021/01/05 00:57:08;;;;;;;31.13;15.27;;;;;;;0.55;69.04;94984.06;4769571;30;20055;-42
2021/01/05 00:59:40;;;;;;;32.53;16.08;;;;;;;0.45;68.83;94987.69;4769857;30;20430;-43
2021/01/05 01:02:07;;;;;;;31.77;15.02;;;;;;;0.27;69.71;94985.88;4758458;30;20063;-44
2021/01/05 01:04:36;;;;;;;35.78;15.93;;;;;;;0.37;69.80;94981.16;4751932;30;20130;-43
2021/01/05 01:07:04;;;;;;;34.75;16.17;;;;;;;0.44;69.47;94975.47;4767344;30;20089;-42
2021/01/05 01:09:32;;;;;;;36.33;17.58;;;;;;;0.62;69.02;94982.63;4769121;30;20423;-42
2021/01/05 01:12:14;;;;;;;36.13;16.63;;;;;;;0.60;68.98;94984.78;4770602;30;20522;-42
2021/01/05 01:14:43;;;;;;;38.70;17.30;;;;;;;0.40;69.65;94982.47;4769415;30;20052;-43
2021/01/05 01:17:11;;;;;;;35.47;17.35;;;;;;;0.33;70.01;94979.38;4770591;30;20113;-42
2021/01/05 01:19:37;;;;;;;36.70;17.83;;;;;;;0.30;70.21;94980.75;4770033;30;20048;-42
2021/01/05 01:22:06;;;;;;;41.20;19.30;;;;;;;0.25;70.36;94983.47;4769489;30;20055;-41
2021/01/05 01:24:34;;;;;;;38.22;18.00;;;;;;;0.03;70.81;94978.75;4769337;30;20058;-41
2021/01/05 01:27:20;;;;;;;37.38;17.50;;;;;;;0.11;70.58;94966.69;4769071;30;20060;-41
2021/01/05 01:29:47;;;;;;;36.78;16.98;;;;;;;0.16;70.73;94980.72;4769372;30;20072;-41
2021/01/05 01:32:15;;;;;;;36.60;16.23;;;;;;;0.26;70.35;94986.94;4770515;29;20094;-41
2021/01/05 01:34:42;;;;;;;36.55;18.48;;;;;;;0.53;69.48;94980.94;4754424;30;20060;-42
2021/01/05 01:37:15;;;;;;;40.05;17.15;;;;;;;0.44;69.16;94972.81;4769146;30;20055;-43
2021/01/05 01:39:45;;;;;;;37.58;18.38;;;;;;;0.36;69.63;94979.59;4768859;30;20487;-42
2021/01/05 01:42:18;;;;;;;37.35;16.65;;;;;;;0.40;69.62;94977.13;4769433;30;20083;-42
2021/01/05 01:44:47;;;;;;;42.00;17.90;;;;;;;0.44;69.59;94981.56;4769005;30;20051;-42
2021/01/05 01:47:44;;;;;;;37.08;17.00;;;;;;;0.44;69.62;94980.78;4754238;30;20089;-42
2021/01/05 01:50:23;;;;;;;36.58;16.17;;;;;;;0.43;69.42;94976.56;4765792;30;20056;-41
2021/01/05 01:53:20;;;;;;;40.78;16.75;;;;;;;0.69;68.59;94977.72;4753961;30;20059;-42
2021/01/05 01:56:32;;;;;;;38.58;17.35;;;;;;;0.74;68.58;94971.50;4768705;30;20432;-41
2021/01/05 01:59:47;;;;;;;37.20;16.75;;;;;;;0.74;68.24;94970.72;4767011;30;20055;-42
2021/01/05 02:02:49;;;;;;;33.22;16.60;;;;;;;0.49;68.77;94956.78;4768573;30;20064;-41
2021/01/05 02:05:26;;;;;;;35.35;17.85;;;;;;;0.50;69.21;94974.31;4768661;30;20075;-41
2021/01/05 02:08:13;;;;;;;33.92;17.17;;;;;;;0.58;68.72;94970.97;4768453;30;20079;-42
2021/01/05 02:10:51;;;;;;;33.75;16.08;;;;;;;0.78;68.08;94969.84;4769373;30;20064;-41
2021/01/05 02:13:40;;;;;;;32.67;15.55;;;;;;;0.88;68.06;94971.53;4768351;30;20055;-42
2021/01/05 02:16:28;;;;;;;38.85;17.48;;;;;;;0.85;67.79;94969.47;4768299;30;20575;-41
2021/01/05 02:19:04;;;;;;;36.90;17.05;;;;;;;0.76;68.04;94969.34;4768487;30;20064;-43
2021/01/05 02:21:50;;;;;;;37.40;17.02;;;;;;;0.57;68.65;94968.59;4768272;30;20519;-42
2021/01/05 02:24:26;;;;;;;38.60;17.08;;;;;;;0.47;68.88;94969.56;4768399;30;20058;-42
2021/01/05 02:27:09;;;;;;;40.10;17.50;;;;;;;0.52;69.06;94966.84;4768245;30;20059;-42
2021/01/05 02:29:54;;;;;;;38.80;18.08;;;;;;;0.69;68.48;94969.72;4768363;30;20056;-40
2021/01/05 02:32:54;;;;;;;40.08;17.50;;;;;;;0.74;68.29;94968.84;4769103;30;20102;-41
2021/01/05 02:35:51;;;;;;;38.15;16.63;;;;;;;0.56;67.78;94967.03;4768131;30;20056;-44
2021/01/05 02:38:59;;;;;;;34.75;17.02;;;;;;;0.36;68.77;94960.97;4768874;30;20059;-43
2021/01/05 02:42:12;;;;;;;37.70;16.50;;;;;;;0.44;68.69;94959.50;4769067;30;20135;-43
2021/01/05 02:45:07;;;;;;;37.08;16.30;;;;;;;0.40;68.84;94951.31;4769316;30;20044;-41
2021/01/05 02:48:05;;;;;;;36.40;17.80;;;;;;;0.47;68.53;94953.59;4768815;30;20051;-41
2021/01/05 02:51:08;;;;;;;38.95;17.60;;;;;;;0.59;68.23;94948.59;4769236;30;20048;-41
2021/01/05 02:54:26;;;;;;;39.28;17.90;;;;;;;0.52;68.04;94940.22;4769013;30;20052;-41
2021/01/05 02:57:46;;;;;;;34.58;16.73;;;;;;;0.50;68.57;94950.34;4768866;30;20079;-44
2021/01/05 03:00:50;;;;;;;37.15;16.77;;;;;;;0.51;68.20;94937.84;4771900;29;20082;-44
2021/01/05 03:03:54;;;;;;;36.50;15.35;;;;;;;0.47;68.07;94954.38;4820541;29;20096;-40
2021/01/05 03:06:48;;;;;;;36.65;16.27;;;;;;;0.41;68.57;94941.47;4820675;29;20107;-43
2021/01/05 03:09:45;;;;;;;;;;;;;;;0.54;68.11;94939.91;4766046;29;20056;-41
2021/01/05 03:12:43;;;;;;;33.70;16.23;;;;;;;0.57;68.03;94948.09;4754616;30;19926;-44
2021/01/05 03:15:52;;;;;;;35.42;16.40;;;;;;;0.70;67.66;94936.69;4754778;30;20066;-42
2021/01/05 03:18:54;;;;;;;34.83;15.98;;;;;;;0.69;67.77;94943.09;4754312;30;20093;-45
2021/01/05 03:21:46;;;;;;;32.92;15.75;;;;;;;0.53;68.50;94949.78;4754647;30;20178;-42
2021/01/05 03:24:31;;;;;;;35.70;16.27;;;;;;;0.32;69.02;94940.53;4754760;30;20550;-41
2021/01/05 03:27:17;;;;;;;35.35;15.80;;;;;;;0.42;69.02;94956.34;4754492;30;20060;-42
2021/01/05 03:30:31;;;;;;;35.35;17.20;;;;;;;0.56;68.59;94948.41;4787468;29;20058;-42
2021/01/05 03:33:16;;;;;;;;;;;;;;;0.60;68.35;94950.19;4788267;30;20055;-42
2021/01/05 03:36:01;;;;;;;33.33;15.18;;;;;;;0.43;68.81;94942.75;4761572;30;19972;-41
2021/01/05 03:38:46;;;;;;;31.23;15.38;;;;;;;0.36;68.70;94955.66;4754142;30;20053;-42
2021/01/05 03:41:32;;;;;;;32.88;15.15;;;;;;;0.48;68.18;94944.53;4754480;30;20139;-41
2021/01/05 03:44:17;;;;;;;35.25;15.80;;;;;;;0.34;68.41;94951.69;4754154;30;20131;-42
2021/01/05 03:47:02;;;;;;;32.70;15.57;;;;;;;0.30;68.28;94950.69;4754173;30;20063;-42
2021/01/05 03:49:47;;;;;;;34.88;15.95;;;;;;;0.22;68.36;94944.94;4754032;30;20060;-41
2021/01/05 03:52:32;;;;;;;33.40;15.02;;;;;;;0.13;68.78;94957.34;4754191;30;20139;-42
2021/01/05 03:55:19;;;;;;;32.03;14.73;;;;;;;0.06;68.90;94943.59;4754311;30;20048;-41
2021/01/05 03:58:05;;;;;;;34.10;15.73;;;;;;;0.28;68.32;94945.66;4779648;29;20200;-41
2021/01/05 04:00:51;;;;;;;28.92;14.75;;;;;;;0.26;68.12;94931.06;4755928;30;20060;-41
2021/01/05 04:03:17;;;;;;;30.73;14.90;;;;;;;0.32;68.05;94945.88;4771654;30;20493;-42
2021/01/05 04:05:43;;;;;;;29.88;14.18;;;;;;;0.29;68.46;94946.44;4771752;30;20056;-41
2021/01/05 04:08:10;;;;;;;28.60;15.55;;;;;;;0.20;68.41;94939.13;4771372;30;20082;-41
2021/01/05 04:10:36;;;;;;;33.20;15.70;;;;;;;0.38;67.99;94937.50;4771553;30;20415;-41
2021/01/05 04:13:02;;;;;;;28.35;14.32;;;;;;;0.47;67.66;94945.63;4771512;30;20506;-41
2021/01/05 04:15:29;;;;;;;29.65;14.95;;;;;;;0.43;67.64;94949.94;4771479;30;20063;-42
2021/01/05 04:17:58;;;;;;;27.95;13.73;;;;;;;-0.05;69.32;94947.50;4771301;30;20056;-43
2021/01/05 04:20:27;;;;;;;27.40;14.27;;;;;;;-0.01;69.44;94953.81;4771714;29;20060;-41
2021/01/05 04:22:54;;;;;;;28.27;14.68;;;;;;;0.12;68.99;94947.75;4770546;30;20085;-43
2021/01/05 04:25:21;;;;;;;27.00;13.55;;;;;;;0.39;68.16;94956.91;4771382;30;20105;-41
2021/01/05 04:27:49;;;;;;;25.88;13.73;;;;;;;0.44;67.70;94951.53;4771225;30;20060;-42
2021/01/05 04:30:21;;;;;;;30.33;15.23;;;;;;;0.34;67.74;94954.34;4770256;30;20131;-42
2021/01/05 04:32:48;;;;;;;27.02;14.63;;;;;;;0.26;68.08;94955.81;4771480;29;20083;-42
2021/01/05 04:35:16;;;;;;;26.15;13.20;;;;;;;0.24;68.33;94957.97;4771281;30;20139;-41
2021/01/05 04:37:43;;;;;;;27.08;13.70;;;;;;;0.30;68.20;94953.38;4770984;30;20143;-42
2021/01/05 04:40:20;;;;;;;27.13;14.48;;;;;;;0.34;67.37;94954.34;4770045;30;20511;-40
2021/01/05 04:42:51;;;;;;;27.17;14.27;;;;;;;0.55;66.89;94957.44;4771201;30;20066;-40
2021/01/05 04:45:23;;;;;;;26.40;13.50;;;;;;;0.53;66.76;94957.75;4770988;30;20477;-41
2021/01/05 04:48:08;;;;;;;23.55;13.27;;;;;;;0.45;67.01;94961.06;4771149;30;20059;-42
2021/01/05 04:50:47;;;;;;;30.80;15.18;;;;;;;0.43;67.12;94963.25;4771015;30;20067;-40
2021/01/05 04:53:30;;;;;;;27.10;14.10;;;;;;;0.39;67.12;94967.56;4770946;30;20120;-42
2021/01/05 04:56:04;;;;;;;26.67;13.85;;;;;;;0.41;67.27;94960.88;4771073;30;20063;-41
2021/01/05 04:58:42;;;;;;;29.08;13.88;;;;;;;0.63;66.69;94967.44;4770850;30;20067;-41
2021/01/05 05:01:19;;;;;;;29.40;14.25;;;;;;;0.56;66.46;94965.16;4770944;30;20089;-41
2021/01/05 05:04:03;;;;;;;29.33;14.20;;;;;;;0.44;67.00;94959.50;4771475;30;20515;-41
2021/01/05 05:06:35;;;;;;;31.52;15.38;;;;;;;0.29;67.26;94963.19;4773779;30;20068;-40
2021/01/05 05:09:07;;;;;;;30.30;16.40;;;;;;;0.44;67.01;94964.81;4770565;30;20059;-41
2021/01/05 05:11:50;;;;;;;33.88;15.30;;;;;;;0.45;66.98;94967.19;4814075;24;20084;-40
2021/01/05 05:14:34;;;;;;;29.42;15.23;;;;;;;0.38;67.07;94971.31;4805542;29;20108;-42
2021/01/05 05:17:06;;;;;;;31.60;14.48;;;;;;;0.35;67.18;94962.03;4809347;29;20082;-40
2021/01/05 05:19:46;;;;;;;30.80;14.87;;;;;;;0.29;67.71;94973.03;4811776;29;20111;-40
2021/01/05 05:22:27;;;;;;;28.42;14.35;;;;;;;0.21;67.76;94969.97;4793182;29;20412;-42
2021/01/05 05:25:00;;;;;;;30.83;14.75;;;;;;;0.10;67.66;94971.22;4794027;29;20063;-40
2021/01/05 05:27:26;;;;;;;;;;;;;;;-0.19;69.64;94968.72;4789211;29;20104;-40
2021/01/05 05:29:58;;;;;;;28.08;13.40;;;;;;;-0.04;69.29;94975.66;4788736;29;19925;-42
2021/01/05 05:32:33;;;;;;;31.27;14.13;;;;;;;0.14;68.97;94982.06;4787322;29;20056;-40
2021/01/05 05:35:02;;;;;;;27.67;14.35;;;;;;;0.24;68.73;94981.91;4788265;29;20083;-40
2021/01/05 05:37:54;;;;;;;30.17;14.10;;;;;;;0.30;68.07;94983.41;4787574;29;20055;-40
2021/01/05 05:40:36;;;;;;;31.98;14.63;;;;;;;0.29;68.25;94987.13;4788073;29;20047;-42
2021/01/05 05:43:24;;;;;;;27.05;14.35;;;;;;;0.00;68.28;94926.16;4788496;29;20059;-41
2021/01/05 05:46:00;;;;;;;29.88;14.18;;;;;;;0.22;68.26;94997.34;4789603;29;20480;-40
2021/01/05 05:48:42;;;;;;;30.40;14.45;;;;;;;0.30;68.72;94990.59;4792106;29;20406;-42
2021/01/05 05:51:27;;;;;;;28.52;15.18;;;;;;;0.23;68.72;94989.09;4792655;29;20055;-42
2021/01/05 05:54:01;;;;;;;30.33;15.05;;;;;;;0.28;68.27;94995.41;4790658;29;20059;-41
2021/01/05 05:57:15;;;;;;;30.88;15.10;;;;;;;0.62;66.99;94998.59;4788609;29;20453;-42
2021/01/05 05:59:47;;;;;;;30.70;14.85;;;;;;;0.60;66.87;94995.44;4785764;30;20141;-43
2021/01/05 06:02:18;;;;;;;31.35;13.77;;;;;;;0.59;66.54;95004.50;4782951;30;20082;-41
2021/01/05 06:04:45;;;;;;;32.28;15.23;;;;;;;0.52;66.55;94998.78;4769273;30;20443;-41
2021/01/05 06:07:12;;;;;;;27.33;14.65;;;;;;;0.62;66.59;95003.13;4770447;30;20068;-40
2021/01/05 06:09:38;;;;;;;33.08;15.00;;;;;;;0.50;66.84;95011.56;4769354;30;20060;-42
2021/01/05 06:12:06;;;;;;;34.45;15.02;;;;;;;0.53;66.69;95013.66;4769916;30;20107;-39
2021/01/05 06:14:33;;;;;;;30.45;14.68;;;;;;;0.56;66.35;95002.44;4770450;30;20051;-40
2021/01/05 06:16:59;;;;;;;30.88;15.35;;;;;;;0.55;65.87;95008.81;4770224;30;20593;-42
2021/01/05 06:19:26;;;;;;;28.92;13.88;;;;;;;0.62;66.36;95014.56;4769682;30;20091;-40
2021/01/05 06:21:52;;;;;;;28.42;15.02;;;;;;;0.62;65.92;95016.44;4770177;30;20518;-41
2021/01/05 06:24:18;;;;;;;27.35;14.50;;;;;;;0.75;66.00;95002.38;4770195;30;20511;-43
2021/01/05 06:26:46;;;;;;;33.67;15.40;;;;;;;0.90;65.16;95009.31;4769851;30;20489;-40
2021/01/05 06:29:12;;;;;;;29.40;14.40;;;;;;;0.86;65.00;95005.66;4769435;30;20060;-42
2021/01/05 06:31:39;;;;;;;24.42;13.13;;;;;;;0.82;64.99;95012.66;4772503;30;20067;-42
2021/01/05 06:34:05;;;;;;;31.40;14.68;;;;;;;0.84;64.65;95015.78;4771935;30;20063;-41
2021/01/05 06:36:32;;;;;;;28.60;15.40;;;;;;;0.74;64.94;95010.66;4770111;30;20068;-43
2021/01/05 06:38:58;;;;;;;29.63;13.90;;;;;;;0.69;65.08;95025.63;4770138;30;20094;-41
2021/01/05 06:41:25;;;;;;;28.38;14.35;;;;;;;0.70;65.15;95019.22;4770225;30;20070;-41
2021/01/05 06:43:51;;;;;;;30.58;14.15;;;;;;;0.58;65.20;95018.09;4769775;30;20395;-40
2021/01/05 06:46:18;;;;;;;33.13;15.95;;;;;;;0.37;65.74;95020.28;4772122;30;20139;-44
2021/01/05 06:48:44;;;;;;;31.55;15.48;;;;;;;0.27;66.48;95023.13;4773796;30;20136;-40
2021/01/05 06:51:11;;;;;;;31.48;15.18;;;;;;;0.19;66.79;95024.53;4773825;30;20113;-42
2021/01/05 06:53:37;;;;;;;37.25;18.08;;;;;;;0.19;66.40;95032.50;4769286;30;20198;-41
2021/01/05 06:56:04;;;;;;;32.13;15.27;;;;;;;0.32;66.57;95031.78;4769042;30;20052;-43
2021/01/05 06:58:31;;;;;;;32.63;14.90;;;;;;;0.35;66.19;95035.75;4768556;30;20425;-42
2021/01/05 07:00:57;;;;;;;29.35;13.90;;;;;;;0.51;66.16;95034.44;4768913;30;20105;-46
2021/01/05 07:03:24;;;;;;;32.67;15.32;;;;;;;0.58;65.54;95045.50;4769453;30;20055;-42
2021/01/05 07:05:50;;;;;;;30.38;14.82;;;;;;;0.36;65.84;95042.66;4783600;29;20100;-42
2021/01/05 07:08:17;;;;;;;29.83;15.05;;;;;;;0.11;67.07;95057.91;4805979;29;20058;-46
2021/01/05 07:10:43;;;;;;;31.65;14.85;;;;;;;0.20;67.52;95053.53;4806485;29;20047;-42
2021/01/05 07:13:10;;;;;;;30.45;14.07;;;;;;;0.36;67.06;95061.28;4804652;29;20055;-42
2021/01/05 07:15:36;;;;;;;28.20;14.15;;;;;;;0.65;65.88;95061.91;4804944;29;20046;-43
2021/01/05 07:18:03;;;;;;;26.83;13.63;;;;;;;0.73;65.21;95049.00;4804061;29;20058;-44
2021/01/05 07:20:48;;;;;;;31.42;15.85;;;;;;;0.91;64.58;95072.13;4791998;29;20144;-42
2021/01/05 07:23:14;;;;;;;33.03;15.65;;;;;;;0.85;64.53;95062.66;4776421;30;20056;-41
2021/01/05 07:25:40;;;;;;;32.70;15.15;;;;;;;0.85;65.02;95065.34;4788029;29;20079;-42
2021/01/05 07:28:07;;;;;;;37.25;16.98;;;;;;;0.82;64.52;95061.38;4774718;29;20422;-41
2021/01/05 07:30:33;;;;;;;36.45;16.92;;;;;;;0.64;65.12;95075.50;4771225;30;20060;-41
2021/01/05 07:33:00;;;;;;;33.00;15.80;;;;;;;0.37;65.74;95084.94;4772656;30;20109;-41
2021/01/05 07:35:26;;;;;;;38.35;17.67;;;;;;;-0.03;67.08;95071.13;4789176;29;20039;-40
2021/01/05 07:37:52;;;;;;;38.38;16.77;;;;;;;-0.79;70.21;95072.00;4779695;29;20075;-47
2021/01/05 07:40:20;;;;;;;34.70;16.48;;;;;;;-0.75;70.63;95075.66;4783216;29;20055;-47
2021/01/05 07:42:46;;;;;;;37.40;17.63;;;;;;;-0.70;70.52;95070.31;4804813;29;20108;-48
2021/01/05 07:45:20;;;;;;;35.70;16.85;;;;;;;-0.62;70.27;95077.66;4801777;29;20062;-49
2021/01/05 07:47:50;;;;;;;37.40;16.27;;;;;;;-0.77;70.61;95078.59;4785042;29;20058;-44
2021/01/05 07:50:20;;;;;;;36.10;15.18;;;;;;;-0.95;71.43;95074.00;4786090;29;20070;-51
2021/01/05 07:52:47;;;;;;;42.92;17.83;;;;;;;-0.53;70.13;95077.81;4771671;29;20071;-49
2021/01/05 07:55:18;;;;;;;39.72;16.45;;;;;;;-0.40;69.39;95084.34;4798486;29;20104;-50
2021/01/05 07:57:44;;;;;;;36.78;16.20;;;;;;;-0.16;68.83;95087.78;4804243;29;20054;-49
2021/01/05 08:00:17;;;;;;;39.88;16.45;;;;;;;0.00;67.96;95093.69;4800844;29;20105;-54
2021/01/05 08:02:44;;;;;;;36.80;16.60;;;;;;;-0.86;70.83;95095.44;4787262;29;20111;-51
2021/01/05 08:05:14;;;;;;;39.28;16.55;;;;;;;-0.96;71.52;95091.00;4807248;29;20111;-45
2021/01/05 08:07:41;;;;;;;36.53;16.77;;;;;;;-0.84;71.57;95095.97;4802068;29;20081;-48
2021/01/05 08:10:09;;;;;;;37.08;16.20;;;;;;;-0.61;70.68;95099.72;4803451;29;20058;-46
2021/01/05 08:12:35;;;;;;;40.50;18.20;;;;;;;-0.42;69.51;95097.91;4807633;29;20112;-47
2021/01/05 08:15:02;;;;;;;34.38;16.27;;;;;;;-0.57;69.98;95098.84;4792078;29;20475;-45
2021/01/05 08:17:30;;;;;;;32.42;15.55;;;;;;;-0.90;71.68;95103.16;4786773;29;20062;-49
2021/01/05 08:19:57;;;;;;;37.10;16.02;;;;;;;-0.84;71.37;95094.09;4791271;29;20120;-45
2021/01/05 08:22:24;;;;;;;40.10;16.90;;;;;;;-0.63;70.57;95107.94;4788911;29;20063;-44
2021/01/05 08:24:54;;;;;;;34.75;14.75;;;;;;;-0.80;70.82;95112.91;4775443;29;20055;-45
2021/01/05 08:27:20;;;;;;;35.65;16.33;;;;;;;-0.96;71.09;95113.03;4785501;29;20085;-53
2021/01/05 08:29:47;;;;;;;38.85;16.98;;;;;;;-1.04;71.67;95102.22;4771976;30;20146;-46
2021/01/05 08:32:13;;;;;;;35.05;15.40;;;;;;;-0.78;71.15;95110.75;4778709;30;20075;-49
2021/01/05 08:34:40;;;;;;;35.55;15.15;;;;;;;-0.74;70.50;95123.22;4783994;30;20051;-50
2021/01/05 08:37:06;;;;;;;37.22;16.67;;;;;;;-0.85;71.15;95120.91;4772525;29;20067;-48
2021/01/05 08:39:33;;;;;;;38.03;16.83;;;;;;;-1.05;71.15;95124.53;4778347;30;20082;-43
2021/01/05 08:41:59;;;;;;;37.08;16.35;;;;;;;-0.72;70.71;95107.75;4774386;29;20051;-47
2021/01/05 08:44:25;;;;;;;39.03;15.00;;;;;;;-0.77;70.85;95099.06;4782582;29;20062;-47
2021/01/05 08:46:59;;;;;;;34.28;16.70;;;;;;;-1.03;71.57;95111.78;4788292;29;20429;-46
2021/01/05 08:49:26;;;;;;;;;;;;;;;-1.17;72.28;95116.91;4802114;29;20094;-45
2021/01/05 08:51:54;;;;;;;38.17;16.33;;;;;;;-1.37;72.71;95107.25;4806561;29;19925;-50
2021/01/05 08:54:21;;;;;;;34.33;14.15;;;;;;;-1.00;72.81;95121.84;4799996;29;20056;-44
2021/01/05 08:57:01;;;;;;;36.15;15.60;;;;;;;-0.82;71.02;95120.34;4782548;29;20180;-52
2021/01/05 08:59:27;;;;;;;39.67;16.48;;;;;;;-0.89;71.91;95139.28;4796345;29;20509;-45
2021/01/05 09:01:54;;;;;;;39.00;17.25;;;;;;;-0.86;71.00;95133.41;4803671;29;20066;-50
2021/01/05 09:04:20;;;;;;;38.10;16.27;;;;;;;-0.87;71.13;95112.44;4806548;29;20051;-49
2021/01/05 09:06:48;;;;;;;37.03;16.60;;;;;;;-0.81;70.93;95114.78;4794876;29;20111;-52
2021/01/05 09:09:16;;;;;;;35.67;16.45;;;;;;;-0.54;70.38;95135.50;4784685;29;20062;-50
2021/01/05 09:11:43;;;;;;;40.13;16.52;;;;;;;-0.54;70.11;95137.38;4788082;29;20142;-50
2021/01/05 09:14:09;;;;;;;39.45;16.85;;;;;;;-0.43;69.40;95116.78;4794427;29;20063;-51
2021/01/05 09:16:36;;;;;;;37.03;15.65;;;;;;;-0.72;70.55;95109.63;4788768;29;20112;-48
2021/01/05 09:19:02;;;;;;;36.95;16.30;;;;;;;-0.50;70.16;95136.50;4790608;29;20529;-46
2021/01/05 09:21:29;;;;;;;35.75;16.17;;;;;;;-0.62;70.08;95141.41;4795620;29;20089;-49
2021/01/05 09:23:59;;;;;;;40.00;15.90;;;;;;;-0.68;70.80;95139.91;4793254;29;20481;-49
2021/01/05 09:26:30;;;;;;;41.58;17.20;;;;;;;-0.65;71.02;95143.84;4792670;29;20058;-46
2021/01/05 09:28:56;;;;;;;40.47;16.85;;;;;;;-0.67;70.75;95151.31;4794610;29;20083;-49
2021/01/05 09:31:23;;;;;;;39.28;18.20;;;;;;;-0.46;70.16;95139.41;4791992;29;20417;-48
2021/01/05 09:33:50;;;;;;;38.13;16.55;;;;;;;-0.35;69.89;95142.75;4785722;29;20579;-47
2021/01/05 09:36:18;;;;;;;39.42;15.45;;;;;;;-0.52;70.23;95132.53;4786368;29;20425;-46
2021/01/05 09:38:46;;;;;;;37.45;16.38;;;;;;;-0.16;69.44;95137.47;4795895;29;20123;-46
2021/01/05 09:41:31;;;;;;;38.78;17.40;;;;;;;-0.28;68.89;95135.22;4786545;29;20074;-48
2021/01/05 09:43:57;;;;;;;37.70;16.42;;;;;;;-0.91;71.15;95127.34;4789536;29;20090;-50
2021/01/05 09:46:25;;;;;;;43.80;18.13;;;;;;;-1.03;72.06;95133.81;4788106;29;20539;-50
2021/01/05 09:48:51;;;;;;;41.08;17.67;;;;;;;-0.91;72.10;95125.50;4785080;29;20093;-48
2021/01/05 09:51:23;;;;;;;34.38;16.05;;;;;;;-0.62;70.60;95127.34;4794708;29;20062;-46
2021/01/05 09:54:11;;;;;;;40.95;18.00;;;;;;;-0.67;70.89;95128.19;4789231;29;20074;-49
2021/01/05 09:56:38;;;;;;;39.38;16.02;;;;;;;-0.46;70.33;95134.06;4790275;29;20051;-45
2021/01/05 09:59:05;;;;;;;37.80;16.80;;;;;;;-0.45;69.73;95121.59;4790684;29;20518;-47
2021/01/05 10:01:33;;;;;;;34.65;16.05;;;;;;;-0.27;69.15;95124.31;4783749;29;20061;-46
2021/01/05 10:03:59;;;;;;;36.25;15.32;;;;;;;-0.20;68.43;95121.31;4790220;29;20059;-49
2021/01/05 10:06:33;;;;;;;36.33;16.58;;;;;;;0.21;67.03;95116.28;4788451;29;20524;-48
2021/01/05 10:09:07;;;;;;;32.10;15.40;;;;;;;0.36;66.66;95117.19;4791823;29;20112;-47
2021/01/05 10:11:47;;;;;;;32.25;14.80;;;;;;;0.23;66.80;95114.13;4792597;29;20067;-48
2021/01/05 10:14:17;;;;;;;39.08;16.05;;;;;;;0.17;66.98;95117.94;4766893;29;20146;-49
2021/01/05 10:16:44;;;;;;;38.80;15.68;;;;;;;0.00;67.11;95117.63;4797989;29;20047;-48
2021/01/05 10:19:14;;;;;;;35.83;15.65;;;;;;;-0.38;68.36;95085.63;4792361;29;20054;-50
2021/01/05 10:21:42;;;;;;;37.72;16.05;;;;;;;0.02;67.08;95107.47;4797168;29;20058;-49
2021/01/05 10:24:11;;;;;;;34.03;15.65;;;;;;;-0.04;67.06;95098.00;4790653;29;20502;-48
2021/01/05 10:26:38;;;;;;;32.72;15.63;;;;;;;-0.08;67.84;95099.63;4795449;29;20043;-49
2021/01/05 10:29:06;;;;;;;33.47;15.07;;;;;;;0.24;66.64;95090.97;4790280;29;20052;-48
2021/01/05 10:31:41;;;;;;;31.65;15.23;;;;;;;0.26;66.54;95090.69;4779161;29;20054;-49
2021/01/05 10:34:09;;;;;;;38.97;15.80;;;;;;;-0.01;66.95;95082.25;4784723;29;20055;-49
2021/01/05 10:36:35;;;;;;;35.83;14.02;;;;;;;-0.05;67.17;95091.88;4786518;29;20054;-47
2021/01/05 10:39:13;;;;;;;35.47;15.23;;;;;;;0.20;66.54;95092.63;4787302;29;20422;-47
2021/01/05 10:41:43;;;;;;;33.22;14.27;;;;;;;0.29;65.70;95090.09;4788378;29;20093;-49
2021/01/05 10:44:11;;;;;;;34.15;15.82;;;;;;;0.15;66.37;95092.69;4794528;29;20055;-45
2021/01/05 10:46:42;;;;;;;36.03;14.13;;;;;;;0.28;65.65;95086.66;4784038;29;20047;-47
2021/01/05 10:49:09;;;;;;;31.27;13.48;;;;;;;0.39;65.74;95088.13;4793091;29;20059;-50
2021/01/05 10:51:50;;;;;;;39.42;16.90;;;;;;;0.65;64.88;95096.53;4787209;29;20063;-46
2021/01/05 10:54:19;;;;;;;31.02;15.75;;;;;;;0.63;64.29;95090.69;4785828;29;20055;-47
2021/01/05 10:56:53;;;;;;;33.17;14.10;;;;;;;0.57;64.44;95086.50;4793996;29;20142;-48
2021/01/05 10:59:20;;;;;;;33.45;14.55;;;;;;;0.51;64.67;95081.56;4775196;29;20158;-51
2021/01/05 11:01:46;;;;;;;33.08;14.05;;;;;;;-0.01;66.75;95081.47;4780140;29;20113;-49
2021/01/05 11:04:13;;;;;;;38.00;16.73;;;;;;;-0.33;68.07;95085.56;4782331;29;20114;-51
2021/01/05 11:06:39;;;;;;;40.00;15.77;;;;;;;-0.11;67.54;95070.97;4787764;29;20066;-50
2021/01/05 11:09:06;;;;;;;35.47;15.45;;;;;;;0.04;67.01;95081.41;4786455;29;20056;-48
2021/01/05 11:11:32;;;;;;;37.83;14.90;;;;;;;0.26;66.16;95075.53;4788516;29;20071;-49
2021/01/05 11:13:59;;;;;;;31.95;14.00;;;;;;;0.17;66.61;95080.69;4788055;29;20051;-51
2021/01/05 11:16:25;;;;;;;39.17;15.10;;;;;;;0.06;66.44;95036.69;4793072;29;20062;-49
2021/01/05 11:18:53;;;;;;;38.50;16.05;;;;;;;0.45;66.04;95067.53;4786365;29;20359;-47
2021/01/05 11:21:20;;;;;;;39.08;14.88;;;;;;;0.51;65.15;95063.72;4781706;30;20070;-50
2021/01/05 11:23:46;;;;;;;33.83;15.02;;;;;;;-0.22;67.36;95064.19;4772334;30;20134;-49
2021/01/05 11:26:13;;;;;;;33.40;14.55;;;;;;;-0.07;67.71;95056.00;4790408;29;20059;-50
2021/01/05 11:28:51;;;;;;;34.15;14.43;;;;;;;-0.02;67.23;95053.28;4786208;29;20058;-50
2021/01/05 11:31:18;;;;;;;35.70;14.63;;;;;;;0.29;66.33;95058.97;4776923;29;20458;-47
2021/01/05 11:33:45;;;;;;;33.00;15.00;;;;;;;0.20;66.13;95050.06;4776995;30;20097;-50
2021/01/05 11:36:11;;;;;;;41.00;15.68;;;;;;;0.34;65.92;95044.81;4785785;30;20124;-46
2021/01/05 11:38:38;;;;;;;32.58;14.55;;;;;;;0.48;65.44;95048.31;4796714;29;20069;-52
2021/01/05 11:41:24;;;;;;;35.35;15.93;;;;;;;0.73;64.97;95039.16;4784974;29;20063;-46
2021/01/05 11:43:51;;;;;;;35.80;14.38;;;;;;;0.84;63.84;95047.75;4783311;30;20098;-49
2021/01/05 11:46:18;;;;;;;36.03;15.05;;;;;;;0.78;63.84;95062.22;4785082;29;20591;-47
2021/01/05 11:48:45;;;;;;;31.67;14.88;;;;;;;0.83;63.42;95041.63;4778172;29;20056;-50
2021/01/05 11:51:24;;;;;;;34.95;14.23;;;;;;;0.47;64.13;95031.56;4785838;29;20461;-47
2021/01/05 11:53:51;;;;;;;32.13;14.13;;;;;;;0.54;64.60;95039.19;4784417;29;20542;-50